Latest Weather Observations for Cerberus

IDV60801

Issued at 8:02 am EST Saturday 24 August 2019 (issued every 10 minutes, with the page automatically refreshed every 10 minutes)

About weather observations | Map of weather stations | Latest weather observations for VIC | Other Formats
Station Details ID: 086361 Name: CERBERUS Lat: -38.36 Lon: 145.18 Height: 12.69 m
Data from the previous 72 hours. | See also: Recent months at Cerberus
Date/Time
EST
Temp
°C
App
Temp
°C
Dew
Point
°C
Rel
Hum
%
Delta-T
°C
Wind Press
QNH
hPa
Press
MSL
hPa
Rain since
9am
mm
Dir  Spd
km/h
Gust
km/h
Spd
kts
Gust
kts
24/08:00am 11.4 7.5 1.4 50 4.2 N 11 30 6 16 1015.2 1015.2 0.0
24/07:30am 10.8 6.5 0.8 50 4.1 N 13 28 7 15 1015.4 1015.4 0.0
24/07:00am 10.5 5.8 0.8 51 4.0 N 15 32 8 17 1015.3 1015.3 0.0
24/06:30am 10.6 5.9 0.9 51 4.0 N 15 33 8 18 1015.2 1015.2 0.0
24/06:00am 10.6 6.3 1.2 52 3.9 N 13 28 7 15 1015.4 1015.4 0.0
24/05:30am 10.5 5.9 1.6 54 3.7 N 15 32 8 17 1015.5 1015.5 0.0
24/05:00am 10.2 6.4 1.8 56 3.5 N 11 20 6 11 1015.6 1015.6 0.0
24/04:30am 10.4 6.3 2.0 56 3.5 N 13 26 7 14 1015.8 1015.8 0.0
24/04:00am 10.6 6.4 1.9 55 3.7 N 13 30 7 16 1016.1 1016.1 0.0
24/03:30am 10.7 6.5 1.8 54 3.8 N 13 30 7 16 1016.0 1016.0 0.0
24/03:00am 10.7 6.2 2.0 55 3.7 N 15 28 8 15 1015.9 1015.9 0.0
24/02:30am 10.7 6.2 2.3 56 3.6 N 15 24 8 13 1016.4 1016.4 0.0
24/02:00am 10.5 6.4 2.4 57 3.5 N 13 24 7 13 1016.8 1016.8 0.0
24/01:30am 10.4 6.8 2.7 59 3.3 N 11 22 6 12 1017.5 1017.5 0.0
24/01:00am 10.6 7.8 2.9 59 3.3 N 7 15 4 8 1017.7 1017.7 0.0
24/12:30am 10.1 7.3 3.2 62 3.0 N 7 15 4 8 1017.9 1017.9 0.0
24/12:00am 10.4 7.3 3.4 62 3.0 N 9 17 5 9 1018.2 1018.2 0.0
 
Date/Time
EST
Temp
°C
App
Temp
°C
Dew
Point
°C
Rel
Hum
%
Delta-T
°C
Wind Press
QNH
hPa
Press
MSL
hPa
Rain since
9am
mm
Dir  Spd
km/h
Gust
km/h
Spd
kts
Gust
kts
23/11:30pm 10.9 7.4 3.7 61 3.2 N 11 20 6 11 1018.5 1018.5 0.0
23/11:00pm 10.8 6.9 3.4 60 3.2 N 13 28 7 15 1018.5 1018.5 0.0
23/10:30pm 10.3 7.7 3.1 61 3.1 NNE 6 19 3 10 1018.9 1018.9 0.0
23/10:00pm 11.0 7.1 3.3 59 3.4 NNW 13 28 7 15 1019.1 1019.1 0.0
23/09:30pm 11.6 5.9 3.1 56 3.7 NNW 22 43 12 23 1019.3 1019.3 0.0
23/09:00pm 11.7 6.7 3.5 57 3.6 NNW 19 32 10 17 1019.8 1019.8 0.0
23/08:30pm 11.7 5.8 3.7 58 3.6 NNW 24 39 13 21 1019.7 1019.7 0.0
23/08:00pm 11.8 6.6 3.8 58 3.6 NNW 20 33 11 18 1019.6 1019.6 0.0
23/07:30pm 12.0 6.4 3.5 56 3.8 NNW 22 37 12 20 1019.5 1019.5 0.0
23/07:00pm 12.1 7.0 3.3 55 3.9 NNW 19 37 10 20 1019.6 1019.6 0.0
23/06:30pm 12.5 6.9 3.2 53 4.1 NNW 22 39 12 21 1019.4 1019.4 0.0
23/06:00pm 12.6 7.5 3.3 53 4.1 NNW 19 41 10 22 1019.3 1019.3 0.0
23/05:30pm 13.3 9.4 3.4 51 4.4 NNW 13 28 7 15 1019.4 1019.4 0.0
23/05:00pm 14.1 10.1 3.0 47 4.9 NNW 13 28 7 15 1019.3 1019.3 0.0
23/04:30pm 14.6 10.4 4.0 49 4.9 NNW 15 28 8 15 1019.2 1019.2 0.0
23/04:00pm 14.7 10.1 3.5 47 5.1 NNW 17 32 9 17 1019.4 1019.4 0.0
23/03:30pm 15.0 11.8 5.0 51 4.7 NNW 11 22 6 12 1019.5 1019.5 0.0
23/03:00pm 14.3 10.6 4.3 51 4.6 NNW 13 22 7 12 1019.9 1019.9 0.0
23/02:30pm 13.8 9.6 3.6 50 4.6 NNW 15 24 8 13 1019.9 1019.9 0.0
23/02:00pm 13.3 9.4 5.5 59 3.6 NW 15 26 8 14 1020.5 1020.5 0.0
23/01:30pm 12.2 8.2 4.9 61 3.3 NNW 15 24 8 13 1021.0 1021.0 0.0
23/01:00pm 11.4 6.6 4.8 64 3.0 NW 19 30 10 16 1021.9 1021.9 0.0
23/12:30pm 11.4 7.4 5.1 65 2.9 NW 15 24 8 13 1022.7 1022.7 0.0
23/12:00pm 11.1 6.4 5.2 67 2.7 NW 19 28 10 15 1023.3 1023.3 0.0
23/11:30am 10.7 5.9 4.8 67 2.7 WNW 19 26 10 14 1023.8 1023.8 0.0
23/11:00am 10.9 6.1 4.8 66 2.7 WNW 19 28 10 15 1024.4 1024.4 0.0
23/10:30am 10.9 6.5 4.6 65 2.8 NW 17 30 9 16 1024.5 1024.5 0.0
23/10:00am 10.0 6.3 4.6 69 2.4 NW 13 24 7 13 1024.9 1024.9 0.0
23/09:30am 9.9 7.3 6.1 77 1.8 NNW 9 13 5 7 1025.1 1025.1 0.0
23/09:00am 9.1 6.9 6.0 81 1.4 NNW 7 15 4 8 1025.3 1025.3 0.0
23/08:30am 8.0 5.9 5.8 86 1.0 N 6 9 3 5 1025.5 1025.5 0.0
23/08:00am 6.3 3.9 4.3 87 0.9 N 6 6 3 3 1025.3 1025.3 0.0
23/07:30am 5.0 2.4 3.2 88 0.7 N 6 7 3 4 1025.2 1025.2 0.0
23/07:00am 4.0 1.6 1.9 86 0.8 WNW 4 6 2 3 1025.2 1025.2 0.0
23/06:30am 3.5 0.6 1.2 85 0.9 NW 6 7 3 4 1024.9 1024.9 0.0
23/06:00am 3.3 0.7 0.9 84 0.9 NW 4 6 2 3 1024.9 1024.9 0.0
23/05:30am 4.3 1.5 2.0 85 0.9 NW 6 7 3 4 1024.7 1024.7 0.0
23/05:00am 4.7 1.7 2.1 83 1.0 NW 7 7 4 4 1024.7 1024.7 0.0
23/04:30am 4.5 2.4 1.4 80 1.2 NW 2 4 1 2 1024.7 1024.7 0.0
23/04:00am 5.6 3.2 2.1 78 1.4 NW 4 6 2 3 1024.9 1024.9 0.0
23/03:30am 6.9 4.2 2.4 73 1.9 NW 6 7 3 4 1024.9 1024.9 0.0
23/03:00am 8.7 5.9 2.3 64 2.7 W 6 7 3 4 1025.1 1025.1 0.0
23/02:30am 9.4 7.2 3.2 65 2.7 W 4 7 2 4 1025.5 1025.5 0.0
23/02:00am 9.6 6.8 3.4 65 2.7 WNW 7 13 4 7 1025.8 1025.8 0.0
23/01:30am 9.2 7.0 3.4 67 2.5 WNW 4 7 2 4 1026.0 1026.0 0.0
23/01:00am 9.6 7.0 3.1 64 2.8 W 6 7 3 4 1026.1 1026.1 0.0
23/12:30am 9.5 6.9 3.3 65 2.7 WNW 6 7 3 4 1026.3 1026.3 0.0
23/12:00am 9.4 7.1 2.9 64 2.8 WNW 4 7 2 4 1026.3 1026.3 0.0
 
Date/Time
EST
Temp
°C
App
Temp
°C
Dew
Point
°C
Rel
Hum
%
Delta-T
°C
Wind Press
QNH
hPa
Press
MSL
hPa
Rain since
9am
mm
Dir  Spd
km/h
Gust
km/h
Spd
kts
Gust
kts
22/11:30pm 9.6 6.8 2.9 63 2.9 WNW 7 11 4 6 1026.3 1026.3 0.0
22/11:00pm 9.4 6.7 2.9 64 2.8 WNW 6 7 3 4 1026.3 1026.3 0.0
22/10:30pm 9.4 6.6 3.2 65 2.7 WNW 7 13 4 7 1026.3 1026.3 0.0
22/10:00pm 9.4 6.8 3.4 66 2.6 WNW 6 9 3 5 1026.5 1026.5 0.0
22/09:30pm 9.2 6.6 3.0 65 2.7 WNW 6 9 3 5 1026.5 1026.5 0.0
22/09:00pm 9.4 6.6 3.2 65 2.6 W 7 9 4 5 1026.4 1026.4 0.0
22/08:30pm 9.4 6.6 3.4 66 2.6 W 7 11 4 6 1026.5 1026.5 0.0
22/08:00pm 8.6 6.2 2.4 65 2.6 W 4 6 2 3 1026.2 1026.2 0.0
22/07:30pm 9.3 6.6 2.9 64 2.7 WNW 6 7 3 4 1026.0 1026.0 0.0
22/07:00pm 9.3 6.4 2.6 63 2.8 WNW 7 11 4 6 1025.9 1025.9 0.0
22/06:30pm 9.2 6.3 2.8 64 2.7 WNW 7 9 4 5 1025.6 1025.6 0.0
22/06:00pm 9.7 6.0 2.6 61 3.0 WSW 11 17 6 9 1025.4 1025.4 0.0
22/05:30pm 10.9 7.0 3.5 60 3.3 SW 13 24 7 13 1025.1 1025.1 0.0
22/05:00pm 11.2 7.2 2.8 56 3.6 SW 13 24 7 13 1024.9 1024.9 0.0
22/04:30pm 10.9 6.8 2.5 56 3.6 SSW 13 20 7 11 1024.8 1024.8 0.0
22/04:00pm 11.3 6.6 2.9 56 3.6 SW 17 28 9 15 1024.5 1024.5 0.0
22/03:30pm 12.1 7.9 3.6 56 3.8 SSW 15 22 8 12 1024.2 1024.2 0.0
22/03:00pm 12.2 6.9 4.9 61 3.3 SW 22 33 12 18 1024.0 1024.0 0.0
22/02:30pm 12.1 6.9 3.3 55 3.9 SSW 20 30 11 16 1023.8 1023.8 0.0
22/02:00pm 12.1 6.7 2.3 51 4.2 SSW 20 30 11 16 1023.8 1023.8 0.0
22/01:30pm 12.1 7.0 4.1 58 3.6 SSW 20 30 11 16 1023.8 1023.8 0.0
22/01:00pm 12.2 6.7 4.2 58 3.6 SSW 22 33 12 18 1023.7 1023.7 0.0
22/12:30pm 12.0 5.9 4.7 61 3.3 SSW 26 35 14 19 1023.8 1023.8 0.0
22/12:00pm 12.0 6.4 5.2 63 3.1 SSW 24 35 13 19 1023.7 1023.7 0.0
22/11:30am 12.2 6.4 4.4 59 3.5 SSW 24 35 13 19 1023.7 1023.7 0.0
22/11:00am 11.9 6.4 4.2 59 3.4 SSW 22 35 12 19 1023.6 1023.6 0.0
22/10:30am 11.9 5.7 4.4 60 3.4 SW 26 41 14 22 1023.3 1023.3 0.0
22/10:00am 11.7 6.0 4.7 62 3.2 SW 24 37 13 20 1022.8 1022.8 0.0
22/09:30am 11.3 5.1 4.1 61 3.2 SSW 26 46 14 25 1022.3 1022.3 0.0
22/09:00am 11.1 5.3 4.3 63 3.0 SSW 24 44 13 24 1021.7 1021.7 4.2
22/08:30am 10.8 5.7 4.0 63 3.0 SW 20 37 11 20 1021.4 1021.4 4.2
22/08:01am 10.8 4.1 3.6 61 3.2 SW 28 48 15 26 1020.8 1020.8 4.2
22/08:00am 10.8 4.1 3.4 60 3.2 SW 28 43 15 23 1020.8 1020.8 4.2
22/07:30am 10.8 5.1 3.1 59 3.3 SW 22 35 12 19 1020.4 1020.4 4.2
22/07:12am 10.5 3.6 2.6 58 3.4 SW 28 46 15 25 1020.3 1020.3 4.2
22/07:00am 10.2 3.2 2.1 57 3.4 SW 28 46 15 25 1020.1 1020.1 4.2
22/06:34am 10.7 4.0 3.5 61 3.2 SW 28 50 15 27 1019.6 1019.6 4.2
22/06:30am 10.7 4.4 3.7 62 3.1 SW 26 41 14 22 1019.6 1019.6 4.2
22/06:00am 10.6 4.2 3.2 60 3.2 SW 26 48 14 26 1019.2 1019.2 4.2
22/05:35am 10.8 4.0 3.1 59 3.3 SW 28 48 15 26 1018.9 1018.9 4.2
22/05:30am 10.6 3.9 3.4 61 3.1 SW 28 46 15 25 1018.9 1018.9 4.2
22/05:01am 10.7 3.8 4.4 65 2.8 SW 30 52 16 28 1018.3 1018.3 4.2
22/05:00am 10.8 3.9 4.5 65 2.8 SW 30 43 16 23 1018.4 1018.4 4.2
22/04:37am 11.1 4.3 5.2 67 2.7 SW 30 52 16 28 1018.0 1018.0 4.2
22/04:30am 11.2 4.1 5.3 67 2.7 SW 32 48 17 26 1017.8 1017.8 4.2
22/04:20am 11.0 4.8 6.2 72 2.2 SW 28 46 15 25 1017.5 1017.5 4.2
22/04:00am 10.3 4.7 7.2 81 1.5 SW 26 41 14 22 1017.4 1017.4 4.2
22/03:36am 10.9 3.9 7.0 77 1.9 SW 33 52 18 28 1017.0 1017.0 3.8
22/03:30am 11.1 4.7 6.8 75 2.0 SW 30 44 16 24 1016.9 1016.9 3.6
22/03:00am 11.5 3.9 6.0 69 2.6 WSW 35 56 19 30 1016.5 1016.5 3.6
22/02:30am 11.6 4.7 6.5 71 2.4 WSW 32 57 17 31 1016.2 1016.2 3.6
22/02:08am 11.5 5.0 6.6 72 2.3 WSW 30 48 16 26 1016.3 1016.3 3.6
22/02:00am 11.6 5.2 6.9 73 2.2 WSW 30 46 16 25 1016.1 1016.1 3.6
22/01:35am 11.9 5.7 7.8 76 2.0 WSW 30 50 16 27 1016.0 1016.0 3.6
22/01:30am 11.8 5.7 8.3 79 1.7 WSW 30 44 16 24 1016.2 1016.2 3.6
22/01:06am 11.6 5.9 8.5 81 1.5 WSW 28 48 15 26 1016.0 1016.0 3.6
22/01:00am 11.6 5.2 8.5 81 1.5 WSW 32 50 17 27 1015.8 1015.8 3.6
22/12:30am 11.5 4.6 8.9 84 1.3 WSW 35 54 19 29 1015.6 1015.6 3.6
22/12:03am 11.7 6.3 9.4 86 1.2 WSW 28 50 15 27 1015.3 1015.3 3.0
22/12:00am 11.7 6.7 9.4 86 1.2 WSW 26 46 14 25 1015.0 1015.0 2.8
 
Date/Time
EST
Temp
°C
App
Temp
°C
Dew
Point
°C
Rel
Hum
%
Delta-T
°C
Wind Press
QNH
hPa
Press
MSL
hPa
Rain since
9am
mm
Dir  Spd
km/h
Gust
km/h
Spd
kts
Gust
kts
21/11:31pm 11.9 5.7 9.3 84 1.3 WSW 32 52 17 28 1014.9 1014.9 1.8
21/11:30pm 11.8 5.4 9.4 85 1.2 WSW 33 52 18 28 1014.9 1014.9 1.8
21/11:00pm 11.3 3.7 9.0 86 1.1 WSW 39 61 21 33 1014.9 1014.9 1.8
21/10:53pm 11.3 5.4 9.0 86 1.1 WSW 30 61 16 33 1015.0 1015.0 1.6
21/10:50pm 11.3 6.9 8.9 85 1.2 WSW 22 59 12 32 1014.9 1014.9 1.6
21/10:30pm 12.0 8.0 9.0 82 1.5 W 20 32 11 17 1014.6 1014.6 0.2
21/10:00pm 11.8 6.9 8.6 81 1.6 WNW 24 39 13 21 1014.6 1014.6 0.2
21/09:39pm 12.4 6.7 8.5 77 1.9 WNW 28 46 15 25 1014.6 1014.6 0.2
21/09:30pm 12.3 7.0 8.4 77 1.9 WNW 26 50 14 27 1014.7 1014.7 0.2
21/09:00pm 12.2 6.5 8.5 78 1.8 WNW 28 50 15 27 1014.5 1014.5 0.2
21/08:30pm 12.2 7.3 8.3 77 1.9 WNW 24 39 13 21 1014.9 1014.9 0.2
21/08:00pm 12.2 6.1 8.1 76 2.0 WNW 30 57 16 31 1015.6 1015.6 0.2
21/07:40pm 12.3 6.5 8.0 75 2.1 WNW 28 46 15 25 1015.7 1015.7 0.2
21/07:30pm 12.4 6.2 7.9 74 2.2 WNW 30 44 16 24 1015.5 1015.5 0.2
21/07:00pm 12.4 7.1 6.9 69 2.6 WNW 24 41 13 22 1015.6 1015.6 0.2
21/06:30pm 12.8 8.3 6.8 67 2.9 WNW 20 30 11 16 1016.0 1016.0 0.2
21/06:00pm 12.6 9.5 7.3 70 2.6 W 13 26 7 14 1016.4 1016.4 0.2
21/05:30pm 12.4 9.7 7.3 71 2.5 W 11 17 6 9 1016.4 1016.4 0.2
21/05:00pm 12.8 8.9 7.0 68 2.8 WSW 17 26 9 14 1016.5 1016.5 0.2
21/04:30pm 13.4 9.5 7.0 65 3.1 WSW 17 28 9 15 1016.7 1016.7 0.2
21/04:00pm 13.6 8.4 7.2 65 3.1 WSW 24 39 13 21 1017.1 1017.1 0.2
21/03:30pm 14.1 9.2 6.9 62 3.5 WSW 22 32 12 17 1017.2 1017.2 0.2
21/03:00pm 14.2 10.0 7.5 64 3.3 WSW 19 30 10 16 1016.9 1016.9 0.2
21/02:30pm 13.6 7.1 6.5 62 3.4 WSW 30 43 16 23 1017.8 1017.8 0.2
21/02:00pm 13.7 7.7 7.2 65 3.2 WSW 28 44 15 24 1017.5 1017.5 0.2
21/01:30pm 13.8 7.7 6.7 62 3.4 WSW 28 44 15 24 1017.6 1017.6 0.2
21/01:21pm 13.7 7.9 7.9 68 2.9 W 28 46 15 25 1017.9 1017.9 0.0
21/01:00pm 13.8 8.6 7.3 65 3.2 WSW 24 39 13 21 1018.0 1018.0 0.0
21/12:30pm 13.7 8.1 7.0 64 3.3 WSW 26 43 14 23 1018.2 1018.2 0.0
21/12:00pm 13.7 6.9 6.8 63 3.3 W 32 52 17 28 1018.3 1018.3 0.0
21/11:30am 13.5 7.1 7.1 65 3.1 WSW 30 48 16 26 1018.8 1018.8 0.0
21/11:01am 13.6 7.1 6.7 63 3.3 W 30 52 16 28 1018.4 1018.4 0.0
21/11:00am 13.6 7.2 6.9 64 3.2 WSW 30 46 16 25 1018.5 1018.5 0.0
21/10:33am 13.2 6.9 7.2 67 2.9 WSW 30 50 16 27 1018.4 1018.4 0.0
21/10:30am 13.3 6.6 7.5 68 2.8 WSW 32 46 17 25 1018.4 1018.4 0.0
21/10:01am 13.0 7.2 7.9 71 2.5 WSW 28 50 15 27 1017.8 1017.8 0.0
21/10:00am 13.1 7.7 8.2 72 2.4 WSW 26 46 14 25 1018.0 1018.0 0.0
21/09:49am 12.8 6.9 7.7 71 2.5 W 28 48 15 26 1017.9 1017.9 0.0
21/09:30am 13.1 7.4 8.4 73 2.3 WSW 28 43 15 23 1018.0 1018.0 0.0
21/09:12am 12.5 6.4 8.4 76 2.0 WSW 30 50 16 27 1017.9 1017.9 0.0
21/09:00am 12.2 6.6 8.7 79 1.7 WSW 28 43 15 23 1018.0 1018.0 3.6
21/08:30am 11.3 5.6 8.5 83 1.4 WSW 28 48 15 26 1018.1 1018.1 3.6

Other formats

Comma delimited format used in spreadsheet applications
http://www.bom.gov.au/fwo/IDV60801/IDV60801.94898.axf

JavaScript Object Notation format (JSON) in row-major order
http://www.bom.gov.au/fwo/IDV60801/IDV60801.94898.json

Data quality

Most of these data are generated automatically and are frequently updated. Quality checks on data are not normally performed. It is possible for incorrect values to appear. Refer to information at About Latest Weather Observations and please check the disclaimer before using these data.